KTHA/THA METAR and TAF weather

Enter ICAO airport designator
Station Type Date Time Source
KTHA METAR 2019/11/14 03:55 UTC NOAA

KTHA 140355Z AUTO 17005KT 10SM CLR 00/M05 A3023 RMK A01


Station Type Date Time Source
KTHA Decoded METAR 2019/11/14 03:55 UTC NOAA

Station name not available
Nov 13, 2019 - 10:55 PM EST / 2019.11.14 0355 UTC
Wind: from the S (170 degrees) at 6 MPH (5 KT):0
Visibility: 10 mile(s):0
Sky conditions: clear
Temperature: 32 F (0 C)
Windchill: 26 F (-3 C):1
Dew Point: 23 F (-5 C)
Relative Humidity: 69%
Pressure (altimeter): 30.23 in. Hg (1023 hPa)
ob: KTHA 140355Z AUTO 17005KT 10SM CLR 00/M05 A3023 RMK A01
cycle: 4

Station Type Date Time Source
KTHA TAF UTC NOAA

Error!

Example: see airport list